Plaquemine, LA (70764)

2:50 PM CST on February 06, 2016 (GMT -0600)
Evangeline Place | | Change Station
CLOSE
Current Station
Personal Weather Station
Location: Plaquemine, LA
Elevation: 0 ft
Nearby Weather Stations

Elev 0 ft 30.27 °N, 91.25 °W | Updated 28 seconds ago

Overcast
Overcast
56.6 °F
Feels Like 56.6 °F
N
0.0
Wind Variable Wind from SSE
Gusts 0.0 mph

Today
High -- | Low -- °F
--% Chance of Precip.
Yesterday
High -- | Low -- °F
Precip. -- in
Pressure 30.26 in
Visibility 10.0 miles
Clouds Few 10000 ft
Dew Point 29 °F
Humidity 35%
Rainfall 0.00 in
Snow Depth Not available.
6:52 AM 5:45 PM
Waning Crescent, 4% visible
METAR KBTR 061953Z 00000KT 10SM FEW100 13/M07 A3026 RMK AO2 SLP247 T01331072
Pressure 30.26 in
Visibility 10.0 miles
Clouds Few 10000 ft
Dew Point 29 °F
Humidity 35%
Rainfall 0.00 in
Snow Depth Not available.
6:52 AM 5:45 PM
Waning Crescent, 4% visible
METAR KBTR 061953Z 00000KT 10SM FEW100 13/M07 A3026 RMK AO2 SLP247 T01331072

10-Day Weather Forecast

Almanac

Astronomy

Feb. 06, 2016 Rise Set
Actual Time
Civil Twilight
Nautical Twilight
Astronomical Twilight
Moon
Length of Visible Light
Length of Day
Tomorrow will be .
, % of the Moon is Illuminated

Today's Extremes

State Highs State Lows

Community

WunderPhotos

Upload Photos

1,891,046 photos uploaded!

WunderBlog® & News

Nearby

Air Quality

  Air Quality AQ Index Pollutant
Not available.

Snow Depth

Station Depth Elevation

Earthquake Activity

City Distance Mag. Time & Date
Minimum magnitude displayed is 2.5.

Coastal Water Temperatures

Place Temperature

Stations

Nearby Weather Stations

Station Location Temp. Windchill Dew Point Humidity Wind Precip. Elev Updated Type
                   

Watches & Warnings

There are currently no watches in effect.